sensor_id;sensor_type;location;lat;lon;timestamp;P1;durP1;ratioP1;P2;durP2;ratioP2
8399;SDS011;4237;47.030;15.396;2023-05-27T00:00:52;11.00;;;7.17;;
8399;SDS011;4237;47.030;15.396;2023-05-27T00:03:20;9.77;;;6.60;;
8399;SDS011;4237;47.030;15.396;2023-05-27T00:05:49;7.57;;;6.13;;
8399;SDS011;4237;47.030;15.396;2023-05-27T00:08:17;10.60;;;6.53;;
8399;SDS011;4237;47.030;15.396;2023-05-27T00:10:46;10.47;;;7.23;;
8399;SDS011;4237;47.030;15.396;2023-05-27T00:13:15;11.73;;;7.13;;
8399;SDS011;4237;47.030;15.396;2023-05-27T00:15:43;11.10;;;6.43;;
8399;SDS011;4237;47.030;15.396;2023-05-27T00:18:12;8.07;;;6.10;;
8399;SDS011;4237;47.030;15.396;2023-05-27T00:20:40;9.27;;;6.80;;
8399;SDS011;4237;47.030;15.396;2023-05-27T00:23:08;9.37;;;7.37;;
8399;SDS011;4237;47.030;15.396;2023-05-27T00:25:37;9.43;;;6.50;;
8399;SDS011;4237;47.030;15.396;2023-05-27T00:28:05;9.00;;;6.40;;
8399;SDS011;4237;47.030;15.396;2023-05-27T00:30:34;9.37;;;6.90;;
8399;SDS011;4237;47.030;15.396;2023-05-27T00:33:02;8.90;;;7.00;;
8399;SDS011;4237;47.030;15.396;2023-05-27T00:35:30;8.73;;;6.97;;
8399;SDS011;4237;47.030;15.396;2023-05-27T00:37:59;10.40;;;6.60;;
8399;SDS011;4237;47.030;15.396;2023-05-27T00:40:28;11.73;;;7.00;;
8399;SDS011;4237;47.030;15.396;2023-05-27T00:42:58;10.30;;;7.30;;
8399;SDS011;4237;47.030;15.396;2023-05-27T00:45:26;8.90;;;7.03;;
8399;SDS011;4237;47.030;15.396;2023-05-27T00:47:54;10.80;;;6.63;;
8399;SDS011;4237;47.030;15.396;2023-05-27T00:50:22;9.03;;;6.43;;
8399;SDS011;4237;47.030;15.396;2023-05-27T00:52:52;11.07;;;7.23;;
8399;SDS011;4237;47.030;15.396;2023-05-27T00:55:27;10.33;;;7.30;;
8399;SDS011;4237;47.030;15.396;2023-05-27T00:57:52;9.87;;;7.10;;
8399;SDS011;4237;47.030;15.396;2023-05-27T01:00:23;11.60;;;7.70;;
8399;SDS011;4237;47.030;15.396;2023-05-27T01:02:51;9.00;;;6.93;;
8399;SDS011;4237;47.030;15.396;2023-05-27T01:05:20;10.03;;;7.23;;
8399;SDS011;4237;47.030;15.396;2023-05-27T01:07:59;8.87;;;6.97;;
8399;SDS011;4237;47.030;15.396;2023-05-27T01:15:40;10.67;;;7.03;;
8399;SDS011;4237;47.030;15.396;2023-05-27T01:18:09;10.47;;;7.40;;
8399;SDS011;4237;47.030;15.396;2023-05-27T01:20:39;11.77;;;6.67;;
8399;SDS011;4237;47.030;15.396;2023-05-27T01:23:08;9.07;;;7.00;;
8399;SDS011;4237;47.030;15.396;2023-05-27T01:25:36;11.83;;;7.27;;
8399;SDS011;4237;47.030;15.396;2023-05-27T01:28:04;8.63;;;7.23;;
8399;SDS011;4237;47.030;15.396;2023-05-27T01:30:33;12.47;;;7.77;;
8399;SDS011;4237;47.030;15.396;2023-05-27T01:33:07;13.03;;;6.90;;
8399;SDS011;4237;47.030;15.396;2023-05-27T01:35:46;10.33;;;7.17;;
8399;SDS011;4237;47.030;15.396;2023-05-27T01:38:16;8.60;;;7.10;;
8399;SDS011;4237;47.030;15.396;2023-05-27T01:40:44;11.63;;;8.00;;
8399;SDS011;4237;47.030;15.396;2023-05-27T01:43:14;9.37;;;7.40;;
8399;SDS011;4237;47.030;15.396;2023-05-27T01:45:42;10.17;;;7.27;;
8399;SDS011;4237;47.030;15.396;2023-05-27T01:48:11;12.33;;;8.37;;
8399;SDS011;4237;47.030;15.396;2023-05-27T01:50:39;9.33;;;7.23;;
8399;SDS011;4237;47.030;15.396;2023-05-27T01:53:07;10.13;;;7.73;;
8399;SDS011;4237;47.030;15.396;2023-05-27T01:55:35;12.43;;;7.73;;
8399;SDS011;4237;47.030;15.396;2023-05-27T01:58:04;14.43;;;8.50;;
8399;SDS011;4237;47.030;15.396;2023-05-27T02:00:32;9.47;;;7.67;;
8399;SDS011;4237;47.030;15.396;2023-05-27T02:03:01;16.67;;;8.07;;
8399;SDS011;4237;47.030;15.396;2023-05-27T02:05:29;9.87;;;7.67;;
8399;SDS011;4237;47.030;15.396;2023-05-27T02:07:57;11.83;;;8.37;;
8399;SDS011;4237;47.030;15.396;2023-05-27T02:10:25;11.87;;;7.70;;
8399;SDS011;4237;47.030;15.396;2023-05-27T02:12:53;16.37;;;7.53;;
8399;SDS011;4237;47.030;15.396;2023-05-27T02:15:22;11.63;;;8.23;;
8399;SDS011;4237;47.030;15.396;2023-05-27T02:17:50;15.37;;;7.60;;
8399;SDS011;4237;47.030;15.396;2023-05-27T02:20:21;9.97;;;7.87;;
8399;SDS011;4237;47.030;15.396;2023-05-27T02:22:49;11.00;;;8.40;;
8399;SDS011;4237;47.030;15.396;2023-05-27T02:25:18;9.97;;;7.63;;
8399;SDS011;4237;47.030;15.396;2023-05-27T02:27:46;11.60;;;7.90;;
8399;SDS011;4237;47.030;15.396;2023-05-27T02:30:15;13.50;;;8.03;;
8399;SDS011;4237;47.030;15.396;2023-05-27T02:32:44;11.53;;;7.80;;
8399;SDS011;4237;47.030;15.396;2023-05-27T02:35:12;10.53;;;7.40;;
8399;SDS011;4237;47.030;15.396;2023-05-27T02:37:43;10.83;;;8.20;;
8399;SDS011;4237;47.030;15.396;2023-05-27T02:40:12;15.27;;;8.03;;
8399;SDS011;4237;47.030;15.396;2023-05-27T02:42:40;11.73;;;8.60;;
8399;SDS011;4237;47.030;15.396;2023-05-27T02:45:08;10.47;;;8.47;;
8399;SDS011;4237;47.030;15.396;2023-05-27T02:47:36;12.07;;;7.70;;
8399;SDS011;4237;47.030;15.396;2023-05-27T02:50:05;11.07;;;8.43;;
8399;SDS011;4237;47.030;15.396;2023-05-27T02:52:33;12.83;;;7.97;;
8399;SDS011;4237;47.030;15.396;2023-05-27T02:55:02;12.10;;;7.93;;
8399;SDS011;4237;47.030;15.396;2023-05-27T02:57:30;10.37;;;8.50;;
8399;SDS011;4237;47.030;15.396;2023-05-27T02:59:58;9.57;;;7.37;;
8399;SDS011;4237;47.030;15.396;2023-05-27T03:02:26;11.43;;;8.57;;
8399;SDS011;4237;47.030;15.396;2023-05-27T03:04:55;13.20;;;8.07;;
8399;SDS011;4237;47.030;15.396;2023-05-27T03:07:24;12.10;;;8.00;;
8399;SDS011;4237;47.030;15.396;2023-05-27T03:09:53;12.80;;;8.03;;
8399;SDS011;4237;47.030;15.396;2023-05-27T03:12:21;9.63;;;8.07;;
8399;SDS011;4237;47.030;15.396;2023-05-27T03:14:50;10.93;;;8.03;;
8399;SDS011;4237;47.030;15.396;2023-05-27T03:17:19;16.40;;;9.23;;
8399;SDS011;4237;47.030;15.396;2023-05-27T03:19:47;12.73;;;8.63;;
8399;SDS011;4237;47.030;15.396;2023-05-27T03:22:16;12.20;;;8.13;;
8399;SDS011;4237;47.030;15.396;2023-05-27T03:24:44;13.90;;;9.07;;
8399;SDS011;4237;47.030;15.396;2023-05-27T03:27:13;12.93;;;8.60;;
8399;SDS011;4237;47.030;15.396;2023-05-27T03:29:41;9.87;;;8.10;;
8399;SDS011;4237;47.030;15.396;2023-05-27T03:32:09;9.03;;;7.67;;
8399;SDS011;4237;47.030;15.396;2023-05-27T03:34:38;13.07;;;9.10;;
8399;SDS011;4237;47.030;15.396;2023-05-27T03:37:06;10.87;;;8.53;;
8399;SDS011;4237;47.030;15.396;2023-05-27T03:39:34;12.83;;;8.60;;
8399;SDS011;4237;47.030;15.396;2023-05-27T03:42:02;11.70;;;8.30;;
8399;SDS011;4237;47.030;15.396;2023-05-27T03:44:30;11.03;;;8.07;;
8399;SDS011;4237;47.030;15.396;2023-05-27T03:47:01;11.23;;;7.63;;
8399;SDS011;4237;47.030;15.396;2023-05-27T03:49:28;12.23;;;8.00;;
8399;SDS011;4237;47.030;15.396;2023-05-27T03:51:56;12.93;;;8.37;;
8399;SDS011;4237;47.030;15.396;2023-05-27T03:54:25;11.37;;;8.50;;
8399;SDS011;4237;47.030;15.396;2023-05-27T03:56:53;14.07;;;8.43;;
8399;SDS011;4237;47.030;15.396;2023-05-27T03:59:22;9.70;;;7.80;;
8399;SDS011;4237;47.030;15.396;2023-05-27T04:01:50;12.30;;;7.97;;
8399;SDS011;4237;47.030;15.396;2023-05-27T04:04:18;13.73;;;8.60;;
8399;SDS011;4237;47.030;15.396;2023-05-27T04:06:46;11.90;;;8.37;;
8399;SDS011;4237;47.030;15.396;2023-05-27T04:09:15;12.40;;;8.73;;
8399;SDS011;4237;47.030;15.396;2023-05-27T04:11:43;11.97;;;8.80;;
8399;SDS011;4237;47.030;15.396;2023-05-27T04:14:11;12.00;;;8.37;;
8399;SDS011;4237;47.030;15.396;2023-05-27T04:16:40;12.00;;;8.60;;
8399;SDS011;4237;47.030;15.396;2023-05-27T04:19:08;13.70;;;8.53;;
8399;SDS011;4237;47.030;15.396;2023-05-27T04:21:37;11.43;;;8.00;;
8399;SDS011;4237;47.030;15.396;2023-05-27T04:24:05;12.10;;;8.13;;
8399;SDS011;4237;47.030;15.396;2023-05-27T04:26:34;13.27;;;8.40;;
8399;SDS011;4237;47.030;15.396;2023-05-27T04:29:02;13.73;;;7.67;;
8399;SDS011;4237;47.030;15.396;2023-05-27T04:31:31;12.17;;;8.60;;
8399;SDS011;4237;47.030;15.396;2023-05-27T04:33:59;14.00;;;8.70;;
8399;SDS011;4237;47.030;15.396;2023-05-27T04:36:28;12.07;;;7.97;;
8399;SDS011;4237;47.030;15.396;2023-05-27T04:38:58;11.53;;;8.70;;
8399;SDS011;4237;47.030;15.396;2023-05-27T04:41:27;14.90;;;7.87;;
8399;SDS011;4237;47.030;15.396;2023-05-27T04:43:55;12.97;;;7.87;;
8399;SDS011;4237;47.030;15.396;2023-05-27T04:46:29;12.73;;;7.77;;
8399;SDS011;4237;47.030;15.396;2023-05-27T04:48:58;10.57;;;7.27;;
8399;SDS011;4237;47.030;15.396;2023-05-27T04:51:26;9.87;;;7.90;;
8399;SDS011;4237;47.030;15.396;2023-05-27T04:53:54;8.00;;;6.87;;
8399;SDS011;4237;47.030;15.396;2023-05-27T04:56:23;9.10;;;7.20;;
8399;SDS011;4237;47.030;15.396;2023-05-27T04:58:51;12.30;;;7.23;;
8399;SDS011;4237;47.030;15.396;2023-05-27T05:01:19;10.67;;;7.63;;
8399;SDS011;4237;47.030;15.396;2023-05-27T05:03:49;11.40;;;7.53;;
8399;SDS011;4237;47.030;15.396;2023-05-27T05:06:22;13.20;;;7.77;;
8399;SDS011;4237;47.030;15.396;2023-05-27T05:08:50;8.10;;;7.00;;
8399;SDS011;4237;47.030;15.396;2023-05-27T05:11:18;8.07;;;6.73;;
8399;SDS011;4237;47.030;15.396;2023-05-27T05:13:47;12.03;;;7.37;;
8399;SDS011;4237;47.030;15.396;2023-05-27T05:16:15;9.50;;;7.23;;
8399;SDS011;4237;47.030;15.396;2023-05-27T05:18:43;10.27;;;7.47;;
8399;SDS011;4237;47.030;15.396;2023-05-27T05:21:11;12.87;;;7.60;;
8399;SDS011;4237;47.030;15.396;2023-05-27T05:23:39;11.73;;;7.43;;
8399;SDS011;4237;47.030;15.396;2023-05-27T05:26:08;11.20;;;7.27;;
8399;SDS011;4237;47.030;15.396;2023-05-27T05:28:37;10.00;;;6.63;;
8399;SDS011;4237;47.030;15.396;2023-05-27T05:31:05;12.33;;;7.87;;
8399;SDS011;4237;47.030;15.396;2023-05-27T05:33:33;11.63;;;7.10;;
8399;SDS011;4237;47.030;15.396;2023-05-27T05:36:01;9.47;;;7.73;;
8399;SDS011;4237;47.030;15.396;2023-05-27T05:38:30;11.60;;;7.23;;
8399;SDS011;4237;47.030;15.396;2023-05-27T05:40:59;14.80;;;8.20;;
8399;SDS011;4237;47.030;15.396;2023-05-27T05:43:27;11.37;;;7.70;;
8399;SDS011;4237;47.030;15.396;2023-05-27T05:45:55;12.83;;;7.00;;
8399;SDS011;4237;47.030;15.396;2023-05-27T05:48:23;9.83;;;7.37;;
8399;SDS011;4237;47.030;15.396;2023-05-27T05:50:52;11.03;;;6.67;;
8399;SDS011;4237;47.030;15.396;2023-05-27T05:53:20;11.07;;;6.60;;
8399;SDS011;4237;47.030;15.396;2023-05-27T05:55:48;9.57;;;6.20;;
8399;SDS011;4237;47.030;15.396;2023-05-27T05:58:16;17.33;;;7.90;;
8399;SDS011;4237;47.030;15.396;2023-05-27T06:00:47;10.37;;;6.80;;
8399;SDS011;4237;47.030;15.396;2023-05-27T06:03:34;17.47;;;7.27;;
8399;SDS011;4237;47.030;15.396;2023-05-27T06:06:03;13.60;;;7.27;;
8399;SDS011;4237;47.030;15.396;2023-05-27T06:08:31;11.93;;;7.63;;
8399;SDS011;4237;47.030;15.396;2023-05-27T06:10:59;12.90;;;7.30;;
8399;SDS011;4237;47.030;15.396;2023-05-27T06:13:28;14.57;;;7.57;;
8399;SDS011;4237;47.030;15.396;2023-05-27T06:15:56;12.90;;;7.27;;
8399;SDS011;4237;47.030;15.396;2023-05-27T06:18:24;10.40;;;7.27;;
8399;SDS011;4237;47.030;15.396;2023-05-27T06:20:53;13.83;;;7.17;;
8399;SDS011;4237;47.030;15.396;2023-05-27T06:23:21;9.53;;;6.30;;
8399;SDS011;4237;47.030;15.396;2023-05-27T06:25:49;8.80;;;6.30;;
8399;SDS011;4237;47.030;15.396;2023-05-27T06:28:17;8.77;;;5.80;;
8399;SDS011;4237;47.030;15.396;2023-05-27T06:30:45;10.27;;;5.90;;
8399;SDS011;4237;47.030;15.396;2023-05-27T06:33:14;8.77;;;5.47;;
8399;SDS011;4237;47.030;15.396;2023-05-27T06:35:42;14.60;;;6.07;;
8399;SDS011;4237;47.030;15.396;2023-05-27T06:38:11;9.40;;;5.37;;
8399;SDS011;4237;47.030;15.396;2023-05-27T06:40:39;11.13;;;6.20;;
8399;SDS011;4237;47.030;15.396;2023-05-27T06:43:07;9.23;;;6.17;;
8399;SDS011;4237;47.030;15.396;2023-05-27T06:45:35;8.33;;;5.30;;
8399;SDS011;4237;47.030;15.396;2023-05-27T06:48:04;10.03;;;6.20;;
8399;SDS011;4237;47.030;15.396;2023-05-27T06:50:32;10.13;;;5.87;;
8399;SDS011;4237;47.030;15.396;2023-05-27T06:53:01;11.05;;;6.45;;
8399;SDS011;4237;47.030;15.396;2023-05-27T06:55:29;10.38;;;6.20;;
8399;SDS011;4237;47.030;15.396;2023-05-27T06:57:58;9.75;;;6.15;;
8399;SDS011;4237;47.030;15.396;2023-05-27T07:00:26;10.53;;;5.70;;
8399;SDS011;4237;47.030;15.396;2023-05-27T07:02:54;5.15;;;4.12;;
8399;SDS011;4237;47.030;15.396;2023-05-27T07:05:22;11.30;;;4.83;;
8399;SDS011;4237;47.030;15.396;2023-05-27T07:07:50;7.65;;;4.10;;
8399;SDS011;4237;47.030;15.396;2023-05-27T07:10:19;9.38;;;4.53;;
8399;SDS011;4237;47.030;15.396;2023-05-27T07:12:47;7.22;;;4.35;;
8399;SDS011;4237;47.030;15.396;2023-05-27T07:15:15;9.23;;;4.80;;
8399;SDS011;4237;47.030;15.396;2023-05-27T07:17:44;8.30;;;4.58;;
8399;SDS011;4237;47.030;15.396;2023-05-27T07:20:12;9.78;;;4.67;;
8399;SDS011;4237;47.030;15.396;2023-05-27T07:22:40;10.05;;;4.35;;
8399;SDS011;4237;47.030;15.396;2023-05-27T07:25:09;6.65;;;4.35;;
8399;SDS011;4237;47.030;15.396;2023-05-27T07:27:37;7.35;;;4.17;;
8399;SDS011;4237;47.030;15.396;2023-05-27T07:30:06;9.63;;;4.80;;
8399;SDS011;4237;47.030;15.396;2023-05-27T07:32:35;5.87;;;3.92;;
8399;SDS011;4237;47.030;15.396;2023-05-27T07:35:04;7.58;;;4.53;;
8399;SDS011;4237;47.030;15.396;2023-05-27T07:37:32;5.90;;;4.00;;
8399;SDS011;4237;47.030;15.396;2023-05-27T07:40:00;5.85;;;4.03;;
8399;SDS011;4237;47.030;15.396;2023-05-27T07:42:28;7.20;;;4.35;;
8399;SDS011;4237;47.030;15.396;2023-05-27T07:44:57;8.83;;;4.37;;
8399;SDS011;4237;47.030;15.396;2023-05-27T07:47:25;9.03;;;4.12;;
8399;SDS011;4237;47.030;15.396;2023-05-27T07:49:53;8.00;;;4.53;;
8399;SDS011;4237;47.030;15.396;2023-05-27T07:52:21;6.80;;;4.28;;
8399;SDS011;4237;47.030;15.396;2023-05-27T07:54:49;5.62;;;3.67;;
8399;SDS011;4237;47.030;15.396;2023-05-27T07:57:18;5.85;;;4.10;;
8399;SDS011;4237;47.030;15.396;2023-05-27T07:59:47;6.25;;;3.72;;
8399;SDS011;4237;47.030;15.396;2023-05-27T08:02:15;5.75;;;4.10;;
8399;SDS011;4237;47.030;15.396;2023-05-27T08:04:43;8.30;;;4.47;;
8399;SDS011;4237;47.030;15.396;2023-05-27T08:07:11;7.42;;;4.30;;
8399;SDS011;4237;47.030;15.396;2023-05-27T08:09:40;9.13;;;4.25;;
8399;SDS011;4237;47.030;15.396;2023-05-27T08:12:08;7.45;;;4.15;;
8399;SDS011;4237;47.030;15.396;2023-05-27T08:14:36;8.73;;;4.17;;
8399;SDS011;4237;47.030;15.396;2023-05-27T08:17:04;8.03;;;4.45;;
8399;SDS011;4237;47.030;15.396;2023-05-27T08:19:33;6.40;;;4.05;;
8399;SDS011;4237;47.030;15.396;2023-05-27T08:22:01;10.30;;;4.95;;
8399;SDS011;4237;47.030;15.396;2023-05-27T08:24:30;5.35;;;4.10;;
8399;SDS011;4237;47.030;15.396;2023-05-27T08:26:59;8.18;;;4.42;;
8399;SDS011;4237;47.030;15.396;2023-05-27T08:29:28;6.25;;;4.53;;
8399;SDS011;4237;47.030;15.396;2023-05-27T08:31:58;5.72;;;3.80;;
8399;SDS011;4237;47.030;15.396;2023-05-27T08:34:26;8.68;;;4.30;;
8399;SDS011;4237;47.030;15.396;2023-05-27T08:36:54;6.15;;;4.17;;
8399;SDS011;4237;47.030;15.396;2023-05-27T08:39:22;9.55;;;4.42;;
8399;SDS011;4237;47.030;15.396;2023-05-27T08:41:51;6.80;;;4.30;;
8399;SDS011;4237;47.030;15.396;2023-05-27T08:44:23;7.60;;;4.35;;
8399;SDS011;4237;47.030;15.396;2023-05-27T08:46:52;5.70;;;4.58;;
8399;SDS011;4237;47.030;15.396;2023-05-27T08:49:20;10.75;;;5.28;;
8399;SDS011;4237;47.030;15.396;2023-05-27T08:51:49;6.25;;;4.35;;
8399;SDS011;4237;47.030;15.396;2023-05-27T08:54:19;7.40;;;4.75;;
8399;SDS011;4237;47.030;15.396;2023-05-27T08:56:47;7.75;;;4.22;;
8399;SDS011;4237;47.030;15.396;2023-05-27T08:59:17;6.97;;;4.53;;
8399;SDS011;4237;47.030;15.396;2023-05-27T09:01:46;6.47;;;4.70;;
8399;SDS011;4237;47.030;15.396;2023-05-27T09:04:14;6.20;;;4.22;;
8399;SDS011;4237;47.030;15.396;2023-05-27T09:06:42;5.10;;;4.17;;
8399;SDS011;4237;47.030;15.396;2023-05-27T09:09:10;6.90;;;4.10;;
8399;SDS011;4237;47.030;15.396;2023-05-27T09:11:39;7.92;;;4.42;;
8399;SDS011;4237;47.030;15.396;2023-05-27T09:14:21;4.60;;;4.05;;
8399;SDS011;4237;47.030;15.396;2023-05-27T09:16:49;5.10;;;3.77;;
8399;SDS011;4237;47.030;15.396;2023-05-27T09:19:18;7.30;;;4.62;;
8399;SDS011;4237;47.030;15.396;2023-05-27T09:21:51;5.97;;;3.92;;
8399;SDS011;4237;47.030;15.396;2023-05-27T09:24:17;7.15;;;4.12;;
8399;SDS011;4237;47.030;15.396;2023-05-27T09:26:45;7.60;;;4.05;;
8399;SDS011;4237;47.030;15.396;2023-05-27T09:29:13;12.60;;;4.42;;
8399;SDS011;4237;47.030;15.396;2023-05-27T09:31:42;4.87;;;4.05;;
8399;SDS011;4237;47.030;15.396;2023-05-27T09:34:12;8.68;;;4.10;;
8399;SDS011;4237;47.030;15.396;2023-05-27T09:37:01;6.53;;;3.83;;
8399;SDS011;4237;47.030;15.396;2023-05-27T09:39:30;6.22;;;4.12;;
8399;SDS011;4237;47.030;15.396;2023-05-27T09:41:58;7.33;;;4.03;;
8399;SDS011;4237;47.030;15.396;2023-05-27T09:44:28;6.78;;;3.98;;
8399;SDS011;4237;47.030;15.396;2023-05-27T09:46:59;8.08;;;3.77;;
8399;SDS011;4237;47.030;15.396;2023-05-27T09:49:29;5.95;;;3.50;;
8399;SDS011;4237;47.030;15.396;2023-05-27T09:51:59;7.50;;;3.92;;
8399;SDS011;4237;47.030;15.396;2023-05-27T09:54:28;4.62;;;3.87;;
8399;SDS011;4237;47.030;15.396;2023-05-27T09:56:57;6.75;;;4.03;;
8399;SDS011;4237;47.030;15.396;2023-05-27T09:59:25;6.62;;;3.80;;
8399;SDS011;4237;47.030;15.396;2023-05-27T10:01:54;5.87;;;3.98;;
8399;SDS011;4237;47.030;15.396;2023-05-27T10:04:22;7.05;;;3.98;;
8399;SDS011;4237;47.030;15.396;2023-05-27T10:06:50;6.78;;;3.92;;
8399;SDS011;4237;47.030;15.396;2023-05-27T10:09:20;6.00;;;3.70;;
8399;SDS011;4237;47.030;15.396;2023-05-27T10:11:48;7.22;;;3.75;;
8399;SDS011;4237;47.030;15.396;2023-05-27T10:14:17;7.78;;;3.80;;
8399;SDS011;4237;47.030;15.396;2023-05-27T10:16:52;6.12;;;3.62;;
8399;SDS011;4237;47.030;15.396;2023-05-27T10:19:21;8.00;;;3.65;;
8399;SDS011;4237;47.030;15.396;2023-05-27T10:21:49;4.85;;;3.50;;
8399;SDS011;4237;47.030;15.396;2023-05-27T10:24:30;7.15;;;3.95;;
8399;SDS011;4237;47.030;15.396;2023-05-27T10:26:58;5.45;;;3.85;;
8399;SDS011;4237;47.030;15.396;2023-05-27T10:29:22;7.15;;;3.30;;
8399;SDS011;4237;47.030;15.396;2023-05-27T10:31:53;5.28;;;3.22;;
8399;SDS011;4237;47.030;15.396;2023-05-27T10:34:23;9.63;;;4.10;;
8399;SDS011;4237;47.030;15.396;2023-05-27T10:36:59;5.40;;;3.50;;
8399;SDS011;4237;47.030;15.396;2023-05-27T10:39:30;9.48;;;4.53;;
8399;SDS011;4237;47.030;15.396;2023-05-27T10:41:59;6.33;;;3.83;;
8399;SDS011;4237;47.030;15.396;2023-05-27T10:44:28;7.33;;;4.10;;
8399;SDS011;4237;47.030;15.396;2023-05-27T10:47:01;6.78;;;3.92;;
8399;SDS011;4237;47.030;15.396;2023-05-27T10:49:39;7.35;;;3.95;;
8399;SDS011;4237;47.030;15.396;2023-05-27T10:52:06;7.20;;;4.25;;
8399;SDS011;4237;47.030;15.396;2023-05-27T10:54:37;8.05;;;4.30;;
8399;SDS011;4237;47.030;15.396;2023-05-27T10:57:06;8.30;;;4.08;;
8399;SDS011;4237;47.030;15.396;2023-05-27T10:59:53;5.03;;;3.77;;
8399;SDS011;4237;47.030;15.396;2023-05-27T11:02:23;7.33;;;4.10;;
8399;SDS011;4237;47.030;15.396;2023-05-27T11:04:51;8.73;;;3.75;;
8399;SDS011;4237;47.030;15.396;2023-05-27T11:07:20;6.75;;;4.12;;
8399;SDS011;4237;47.030;15.396;2023-05-27T11:09:50;6.75;;;3.77;;
8399;SDS011;4237;47.030;15.396;2023-05-27T11:12:22;8.90;;;4.20;;
8399;SDS011;4237;47.030;15.396;2023-05-27T11:14:51;6.87;;;4.17;;
8399;SDS011;4237;47.030;15.396;2023-05-27T11:17:19;7.20;;;4.37;;
8399;SDS011;4237;47.030;15.396;2023-05-27T11:19:48;5.05;;;3.72;;
8399;SDS011;4237;47.030;15.396;2023-05-27T11:22:18;6.58;;;3.75;;
8399;SDS011;4237;47.030;15.396;2023-05-27T11:27:32;8.90;;;4.20;;
8399;SDS011;4237;47.030;15.396;2023-05-27T11:30:05;7.20;;;4.35;;
8399;SDS011;4237;47.030;15.396;2023-05-27T11:32:38;7.80;;;4.45;;
8399;SDS011;4237;47.030;15.396;2023-05-27T11:35:02;7.90;;;4.28;;
8399;SDS011;4237;47.030;15.396;2023-05-27T11:37:33;6.72;;;3.80;;
8399;SDS011;4237;47.030;15.396;2023-05-27T11:40:02;8.43;;;4.20;;
8399;SDS011;4237;47.030;15.396;2023-05-27T11:42:34;5.72;;;3.80;;
8399;SDS011;4237;47.030;15.396;2023-05-27T11:45:02;8.50;;;3.83;;
8399;SDS011;4237;47.030;15.396;2023-05-27T11:47:32;5.95;;;3.47;;
8399;SDS011;4237;47.030;15.396;2023-05-27T11:50:02;8.18;;;3.85;;
8399;SDS011;4237;47.030;15.396;2023-05-27T11:52:30;7.47;;;4.10;;
8399;SDS011;4237;47.030;15.396;2023-05-27T11:55:13;4.37;;;2.95;;
8399;SDS011;4237;47.030;15.396;2023-05-27T11:57:34;7.08;;;3.92;;
8399;SDS011;4237;47.030;15.396;2023-05-27T12:00:04;8.20;;;4.33;;
8399;SDS011;4237;47.030;15.396;2023-05-27T12:02:34;8.85;;;4.47;;
8399;SDS011;4237;47.030;15.396;2023-05-27T12:05:03;9.35;;;4.22;;
8399;SDS011;4237;47.030;15.396;2023-05-27T12:07:33;5.80;;;4.00;;
8399;SDS011;4237;47.030;15.396;2023-05-27T12:10:03;5.67;;;3.80;;
8399;SDS011;4237;47.030;15.396;2023-05-27T12:12:32;10.03;;;3.83;;
8399;SDS011;4237;47.030;15.396;2023-05-27T12:15:01;6.80;;;3.72;;
8399;SDS011;4237;47.030;15.396;2023-05-27T12:17:30;7.80;;;3.75;;
8399;SDS011;4237;47.030;15.396;2023-05-27T12:19:58;7.90;;;3.98;;
8399;SDS011;4237;47.030;15.396;2023-05-27T12:22:26;6.92;;;4.40;;
8399;SDS011;4237;47.030;15.396;2023-05-27T12:24:54;8.35;;;4.28;;
8399;SDS011;4237;47.030;15.396;2023-05-27T12:27:23;8.48;;;4.30;;
8399;SDS011;4237;47.030;15.396;2023-05-27T12:29:51;5.55;;;3.90;;
8399;SDS011;4237;47.030;15.396;2023-05-27T12:32:19;6.33;;;4.10;;
8399;SDS011;4237;47.030;15.396;2023-05-27T12:34:47;11.20;;;4.53;;
8399;SDS011;4237;47.030;15.396;2023-05-27T12:37:15;6.47;;;3.50;;
8399;SDS011;4237;47.030;15.396;2023-05-27T12:39:44;9.03;;;4.10;;
8399;SDS011;4237;47.030;15.396;2023-05-27T12:42:12;6.08;;;4.00;;
8399;SDS011;4237;47.030;15.396;2023-05-27T12:44:40;7.67;;;4.08;;
8399;SDS011;4237;47.030;15.396;2023-05-27T12:47:08;6.72;;;4.05;;
8399;SDS011;4237;47.030;15.396;2023-05-27T12:49:37;8.18;;;4.15;;
8399;SDS011;4237;47.030;15.396;2023-05-27T12:52:05;5.83;;;3.80;;
8399;SDS011;4237;47.030;15.396;2023-05-27T12:54:33;9.05;;;4.50;;
8399;SDS011;4237;47.030;15.396;2023-05-27T12:57:02;8.83;;;4.10;;
8399;SDS011;4237;47.030;15.396;2023-05-27T12:59:32;7.22;;;4.42;;
8399;SDS011;4237;47.030;15.396;2023-05-27T13:02:00;7.78;;;3.80;;
8399;SDS011;4237;47.030;15.396;2023-05-27T13:04:29;6.62;;;4.03;;
8399;SDS011;4237;47.030;15.396;2023-05-27T13:06:57;6.95;;;4.08;;
8399;SDS011;4237;47.030;15.396;2023-05-27T13:09:25;6.92;;;4.28;;
8399;SDS011;4237;47.030;15.396;2023-05-27T13:11:53;7.17;;;4.00;;
8399;SDS011;4237;47.030;15.396;2023-05-27T13:14:22;6.03;;;4.10;;
8399;SDS011;4237;47.030;15.396;2023-05-27T13:16:50;7.75;;;4.30;;
8399;SDS011;4237;47.030;15.396;2023-05-27T13:19:20;10.78;;;4.58;;
8399;SDS011;4237;47.030;15.396;2023-05-27T13:21:49;6.62;;;4.42;;
8399;SDS011;4237;47.030;15.396;2023-05-27T13:24:18;5.37;;;3.83;;
8399;SDS011;4237;47.030;15.396;2023-05-27T13:26:46;8.73;;;4.22;;
8399;SDS011;4237;47.030;15.396;2023-05-27T13:29:14;9.98;;;4.20;;
8399;SDS011;4237;47.030;15.396;2023-05-27T13:31:42;7.45;;;4.47;;
8399;SDS011;4237;47.030;15.396;2023-05-27T13:34:12;6.87;;;4.25;;
8399;SDS011;4237;47.030;15.396;2023-05-27T13:36:41;7.08;;;4.33;;
8399;SDS011;4237;47.030;15.396;2023-05-27T13:39:09;7.67;;;4.33;;
8399;SDS011;4237;47.030;15.396;2023-05-27T13:41:38;7.47;;;4.85;;
8399;SDS011;4237;47.030;15.396;2023-05-27T13:44:06;8.63;;;4.62;;
8399;SDS011;4237;47.030;15.396;2023-05-27T13:46:34;10.35;;;4.50;;
8399;SDS011;4237;47.030;15.396;2023-05-27T13:49:03;7.25;;;4.17;;
8399;SDS011;4237;47.030;15.396;2023-05-27T13:51:31;6.90;;;3.92;;
8399;SDS011;4237;47.030;15.396;2023-05-27T13:53:59;7.25;;;4.00;;
8399;SDS011;4237;47.030;15.396;2023-05-27T13:56:27;8.65;;;4.28;;
8399;SDS011;4237;47.030;15.396;2023-05-27T13:58:55;7.83;;;4.10;;
8399;SDS011;4237;47.030;15.396;2023-05-27T14:01:24;9.15;;;4.47;;
8399;SDS011;4237;47.030;15.396;2023-05-27T14:03:52;5.90;;;4.03;;
8399;SDS011;4237;47.030;15.396;2023-05-27T14:06:20;7.60;;;4.22;;
8399;SDS011;4237;47.030;15.396;2023-05-27T14:08:48;14.28;;;9.15;;
8399;SDS011;4237;47.030;15.396;2023-05-27T14:11:16;23.27;;;14.15;;
8399;SDS011;4237;47.030;15.396;2023-05-27T14:13:45;9.28;;;4.80;;
8399;SDS011;4237;47.030;15.396;2023-05-27T14:16:13;30.72;;;21.50;;
8399;SDS011;4237;47.030;15.396;2023-05-27T14:18:41;10.13;;;4.83;;
8399;SDS011;4237;47.030;15.396;2023-05-27T14:21:10;22.17;;;19.25;;
8399;SDS011;4237;47.030;15.396;2023-05-27T14:23:38;14.10;;;9.48;;
8399;SDS011;4237;47.030;15.396;2023-05-27T14:26:07;16.57;;;9.93;;
8399;SDS011;4237;47.030;15.396;2023-05-27T14:28:35;30.00;;;22.15;;
8399;SDS011;4237;47.030;15.396;2023-05-27T14:31:03;30.75;;;21.33;;
8399;SDS011;4237;47.030;15.396;2023-05-27T14:33:32;13.98;;;7.97;;
8399;SDS011;4237;47.030;15.396;2023-05-27T14:36:00;12.07;;;8.83;;
8399;SDS011;4237;47.030;15.396;2023-05-27T14:38:29;7.92;;;5.40;;
8399;SDS011;4237;47.030;15.396;2023-05-27T14:40:57;8.37;;;5.73;;
8399;SDS011;4237;47.030;15.396;2023-05-27T14:43:25;9.07;;;5.27;;
8399;SDS011;4237;47.030;15.396;2023-05-27T14:45:53;6.83;;;5.23;;
8399;SDS011;4237;47.030;15.396;2023-05-27T14:48:22;12.90;;;4.83;;
8399;SDS011;4237;47.030;15.396;2023-05-27T14:50:51;9.97;;;4.33;;
8399;SDS011;4237;47.030;15.396;2023-05-27T14:53:19;48.23;;;5.53;;
8399;SDS011;4237;47.030;15.396;2023-05-27T14:55:47;6.70;;;4.20;;
8399;SDS011;4237;47.030;15.396;2023-05-27T14:58:17;20.40;;;4.80;;
8399;SDS011;4237;47.030;15.396;2023-05-27T15:00:45;14.17;;;3.40;;
8399;SDS011;4237;47.030;15.396;2023-05-27T15:03:14;38.07;;;5.37;;
8399;SDS011;4237;47.030;15.396;2023-05-27T15:05:42;18.60;;;3.80;;
8399;SDS011;4237;47.030;15.396;2023-05-27T15:08:10;9.67;;;2.53;;
8399;SDS011;4237;47.030;15.396;2023-05-27T15:10:40;7.17;;;2.57;;
8399;SDS011;4237;47.030;15.396;2023-05-27T15:13:08;7.33;;;2.53;;